Time;durP1;ratioP1;P1;durP2;ratioP2;P2;SDS_P1;SDS_P2;PMS_P1;PMS_P2;Temp;Humidity;BMP_temperature;BMP_pressure;BME280_temperature;BME280_humidity;BME280_pressure;Samples;Min_cycle;Max_cycle;Signal;HPM_P1;HPM_P2
2022/04/25 00:00:14;;;;;;;;;;;384.20;2329.60;;;;;;5092655;28;19904;-76
2022/04/25 00:02:40;;;;;;;;;;;384.10;2329.60;;;;;;5092569;28;19904;-76
2022/04/25 00:05:06;;;;;;;;;;;384.00;2329.60;;;;;;5091307;28;19935;-74
2022/04/25 00:07:32;;;;;;;;;;;358.90;2329.60;;;;;;5092677;28;19908;-76
2022/04/25 00:09:57;;;;;;;;;;;359.20;2329.60;;;;;;5092566;28;19904;-76
2022/04/25 00:12:23;;;;;;;;;;;359.30;2329.60;;;;;;5092581;28;19951;-76
2022/04/25 00:14:48;;;;;;;;;;;384.00;2329.60;;;;;;5092459;28;20323;-76
2022/04/25 00:17:14;;;;;;;;;;;384.00;2329.60;;;;;;5092507;28;19938;-73
2022/04/25 00:19:40;;;;;;;;;;;384.00;2329.60;;;;;;5095624;28;19904;-76
2022/04/25 00:22:06;;;;;;;;;;;384.00;2329.60;;;;;;5096396;28;19904;-75
2022/04/25 00:24:31;;;;;;;;;;;384.10;2329.60;;;;;;5096046;28;20280;-76
2022/04/25 00:26:57;;;;;;;;;;;384.00;2329.60;;;;;;5096099;28;20060;-75
2022/04/25 00:29:23;;;;;;;;;;;384.00;2329.60;;;;;;5096010;28;19904;-76
2022/04/25 00:31:48;;;;;;;;;;;359.30;2329.60;;;;;;5096058;28;19915;-76
2022/04/25 00:34:14;;;;;;;;;;;384.00;2329.60;;;;;;5100667;28;19911;-75
2022/04/25 00:36:39;;;;;;;;;;;384.00;2329.60;;;;;;5116223;28;19922;-74
2022/04/25 00:39:05;;;;;;;;;;;384.00;2329.60;;;;;;5116316;28;19907;-73
2022/04/25 00:41:31;;;;;;;;;;;384.00;2329.60;;;;;;5097840;28;19931;-76
2022/04/25 00:43:57;;;;;;;;;;;359.30;2329.60;;;;;;5097989;28;20352;-75
2022/04/25 00:46:25;;;;;;;;;;;359.30;2329.60;;;;;;5116115;28;19911;-76
2022/04/25 00:48:51;;;;;;;;;;;359.30;2329.60;;;;;;5116078;28;20659;-76
2022/04/25 00:51:17;;;;;;;;;;;359.30;2329.60;;;;;;5115953;28;19904;-74
2022/04/25 00:53:43;;;;;;;;;;;359.30;2329.60;;;;;;5115885;28;19960;-76
2022/04/25 00:56:09;;;;;;;;;;;359.30;2329.60;;;;;;5115887;28;19904;-73
2022/04/25 00:58:35;;;;;;;;;;;359.20;2329.60;;;;;;5115757;28;19999;-76
2022/04/25 01:01:01;;;;;;;;;;;359.20;2329.60;;;;;;5115812;28;19939;-75
2022/04/25 01:03:27;;;;;;;;;;;359.30;2329.60;;;;;;5115735;28;20332;-75
2022/04/25 01:05:53;;;;;;;;;;;359.30;2329.60;;;;;;5115741;28;19939;-76
2022/04/25 01:08:19;;;;;;;;;;;359.30;2329.60;;;;;;5115931;28;19911;-76
2022/04/25 01:10:45;;;;;;;;;;;359.30;2329.60;;;;;;5115631;28;20002;-76
2022/04/25 01:13:11;;;;;;;;;;;359.10;2329.60;;;;;;5115576;28;20321;-73
2022/04/25 01:15:37;;;;;;;;;;;359.10;2329.60;;;;;;5115535;28;19911;-76
2022/04/25 01:18:03;;;;;;;;;;;359.10;2329.60;;;;;;5115427;28;19911;-77
2022/04/25 01:20:28;;;;;;;;;;;359.00;2329.60;;;;;;5115529;28;19949;-76
2022/04/25 01:22:57;;;;;;;;;;;359.00;2329.60;;;;;;5115368;28;19966;-73
2022/04/25 01:28:07;;;;;;;;;;;358.90;2329.60;;;;;;5115615;28;19953;-76
2022/04/25 01:30:32;;;;;;;;;;;359.00;2329.60;;;;;;5114303;28;19907;-75
2022/04/25 01:32:58;;;;;;;;;;;358.90;2329.60;;;;;;5115164;28;20263;-76
2022/04/25 01:35:24;;;;;;;;;;;358.80;2329.60;;;;;;5114909;28;19948;-76
2022/04/25 01:37:50;;;;;;;;;;;358.80;2329.60;;;;;;5115014;28;19912;-77
2022/04/25 01:40:15;;;;;;;;;;;358.80;2329.60;;;;;;5115009;28;19903;-75
2022/04/25 01:42:42;;;;;;;;;;;358.90;2329.60;;;;;;5114938;28;19908;-74
2022/04/25 01:45:08;;;;;;;;;;;358.90;2329.60;;;;;;5114990;28;19946;-73
2022/04/25 01:47:34;;;;;;;;;;;358.90;2329.60;;;;;;5114984;28;19911;-77
2022/04/25 01:49:59;;;;;;;;;;;358.70;2329.60;;;;;;5114827;28;19904;-73
2022/04/25 01:52:28;;;;;;;;;;;358.60;2329.60;;;;;;5114797;28;19908;-73
2022/04/25 01:54:54;;;;;;;;;;;358.60;2329.60;;;;;;5115213;28;19990;-74
2022/04/25 01:57:20;;;;;;;;;;;358.60;2329.60;;;;;;5114623;28;20045;-78
2022/04/25 01:59:46;;;;;;;;;;;358.80;2329.60;;;;;;5115169;28;19904;-72
2022/04/25 02:02:12;;;;;;;;;;;358.70;2329.60;;;;;;5096629;28;20275;-73
2022/04/25 02:04:38;;;;;;;;;;;358.70;2329.60;;;;;;5114630;28;19904;-76
2022/04/25 02:07:05;;;;;;;;;;;358.80;2329.60;;;;;;5114552;28;19954;-77
2022/04/25 02:09:31;;;;;;;;;;;358.90;2329.60;;;;;;5113239;28;19907;-76
2022/04/25 02:11:56;;;;;;;;;;;358.80;2329.60;;;;;;5114476;28;19907;-73
2022/04/25 02:14:22;;;;;;;;;;;358.90;2329.60;;;;;;5114414;28;19908;-76
2022/04/25 02:16:48;;;;;;;;;;;358.80;2329.60;;;;;;5114193;28;19908;-72
2022/04/25 02:19:14;;;;;;;;;;;358.70;2329.60;;;;;;5114224;28;19903;-77
2022/04/25 02:21:39;;;;;;;;;;;358.60;2329.60;;;;;;5114301;28;19970;-76
2022/04/25 02:24:05;;;;;;;;;;;358.60;2329.60;;;;;;5114177;28;19952;-73
2022/04/25 02:26:31;;;;;;;;;;;358.60;2329.60;;;;;;5112889;28;19904;-76
2022/04/25 02:28:57;;;;;;;;;;;358.60;2329.60;;;;;;5114114;28;19907;-76
2022/04/25 02:31:24;;;;;;;;;;;358.70;2329.60;;;;;;5114174;28;19904;-76
2022/04/25 02:33:50;;;;;;;;;;;358.60;2329.60;;;;;;5113941;28;20356;-73
2022/04/25 02:36:16;;;;;;;;;;;358.70;2329.60;;;;;;5114114;28;19950;-73
2022/04/25 02:38:42;;;;;;;;;;;358.70;2329.60;;;;;;5113991;28;19966;-76
2022/04/25 02:41:11;;;;;;;;;;;358.70;2329.60;;;;;;5113623;28;19954;-77
2022/04/25 02:43:38;;;;;;;;;;;358.60;2329.60;;;;;;5113904;28;19954;-77
2022/04/25 02:46:05;;;;;;;;;;;358.70;2329.60;;;;;;5114115;28;19904;-71
2022/04/25 02:48:30;;;;;;;;;;;358.60;2329.60;;;;;;5114057;28;20002;-77
2022/04/25 02:50:57;;;;;;;;;;;358.60;2329.60;;;;;;5113807;28;20340;-77
2022/04/25 02:53:24;;;;;;;;;;;358.60;2329.60;;;;;;5113771;28;19903;-77
2022/04/25 02:55:51;;;;;;;;;;;358.50;2329.60;;;;;;5113633;28;20266;-77
2022/04/25 02:58:17;;;;;;;;;;;358.40;2329.60;;;;;;5113522;28;19922;-77
2022/04/25 03:00:46;;;;;;;;;;;358.40;2329.60;;;;;;5113747;28;19947;-78
2022/04/25 03:03:12;;;;;;;;;;;358.40;2329.60;;;;;;5113679;28;19939;-78
2022/04/25 03:05:39;;;;;;;;;;;358.40;2329.60;;;;;;5113591;28;19907;-79
2022/04/25 03:08:05;;;;;;;;;;;358.40;2329.60;;;;;;5113801;28;19950;-79
2022/04/25 03:10:31;;;;;;;;;;;358.40;2329.60;;;;;;5113616;28;19951;-80
2022/04/25 03:12:57;;;;;;;;;;;358.40;2329.60;;;;;;5113603;28;19944;-70
2022/04/25 03:15:23;;;;;;;;;;;358.40;2329.60;;;;;;5113573;28;19903;-80
2022/04/25 03:17:49;;;;;;;;;;;358.40;2329.60;;;;;;5113477;28;19916;-74
2022/04/25 03:20:14;;;;;;;;;;;358.40;2329.60;;;;;;5113851;28;20457;-70
2022/04/25 03:22:40;;;;;;;;;;;358.40;2329.60;;;;;;5095262;28;19908;-79
2022/04/25 03:25:06;;;;;;;;;;;358.40;2329.60;;;;;;5112213;28;19952;-70
2022/04/25 03:27:32;;;;;;;;;;;358.40;2329.60;;;;;;5113418;28;20349;-78
2022/04/25 03:29:57;;;;;;;;;;;358.40;2329.60;;;;;;5113484;28;19903;-71
2022/04/25 03:32:23;;;;;;;;;;;358.40;2329.60;;;;;;5113342;28;20029;-73
2022/04/25 03:34:49;;;;;;;;;;;358.40;2329.60;;;;;;5113856;28;20253;-77
2022/04/25 03:37:14;;;;;;;;;;;358.40;2329.60;;;;;;5113213;28;20415;-79
2022/04/25 03:39:40;;;;;;;;;;;358.40;2329.60;;;;;;5095144;28;20371;-78
2022/04/25 03:42:06;;;;;;;;;;;358.40;2329.60;;;;;;5113213;28;19949;-70
2022/04/25 03:44:31;;;;;;;;;;;358.40;2329.60;;;;;;5113307;28;20375;-70
2022/04/25 03:46:57;;;;;;;;;;;358.40;2329.60;;;;;;5094939;28;19998;-77
2022/04/25 03:49:22;;;;;;;;;;;333.60;2329.60;;;;;;5113167;28;20267;-78
2022/04/25 03:51:48;;;;;;;;;;;333.60;2329.60;;;;;;5113195;28;19904;-70
2022/04/25 03:57:09;;;;;;;;;;;333.60;2329.60;;;;;;5115899;28;19914;-76
2022/04/25 03:57:12;;;;;;;;;;;333.60;2329.60;;;;;;5116895;28;19962;-77
2022/04/25 03:59:39;;;;;;;;;;;333.70;2329.60;;;;;;5117006;28;19903;-70
2022/04/25 04:02:05;;;;;;;;;;;333.70;2329.60;;;;;;5117158;28;19915;-75
2022/04/25 04:04:31;;;;;;;;;;;333.70;2329.60;;;;;;5117282;28;19956;-72
2022/04/25 04:06:57;;;;;;;;;;;333.70;2329.60;;;;;;5119254;28;19907;-71
2022/04/25 04:12:07;;;;;;;;;;;333.70;2329.60;;;;;;5117940;28;19950;-70
2022/04/25 04:14:32;;;;;;;;;;;333.60;2329.60;;;;;;5119166;28;19903;-77
2022/04/25 04:16:58;;;;;;;;;;;333.60;2329.60;;;;;;5118504;28;19908;-79
2022/04/25 04:19:24;;;;;;;;;;;333.60;2329.60;;;;;;5117981;28;19904;-72
2022/04/25 04:21:50;;;;;;;;;;;333.60;2329.60;;;;;;5116657;28;20353;-71
2022/04/25 04:24:15;;;;;;;;;;;333.60;2329.60;;;;;;5098426;28;19908;-74
2022/04/25 04:26:42;;;;;;;;;;;333.60;2329.60;;;;;;5116572;28;19904;-78
2022/04/25 04:29:08;;;;;;;;;;;333.50;2329.60;;;;;;5116458;28;19908;-75
2022/04/25 04:31:34;;;;;;;;;;;333.40;2329.60;;;;;;5116595;28;19903;-78
2022/04/25 04:33:59;;;;;;;;;;;333.40;2329.60;;;;;;5116360;28;20129;-77
2022/04/25 04:36:26;;;;;;;;;;;333.40;2329.60;;;;;;5116379;28;19981;-77
2022/04/25 04:38:52;;;;;;;;;;;333.30;2329.60;;;;;;5116276;28;20370;-78
2022/04/25 04:41:17;;;;;;;;;;;333.30;2329.60;;;;;;5116234;28;19907;-71
2022/04/25 04:43:43;;;;;;;;;;;333.30;2329.60;;;;;;5116144;28;19908;-78
2022/04/25 04:46:09;;;;;;;;;;;333.20;2329.60;;;;;;5116168;28;19908;-71
2022/04/25 04:48:35;;;;;;;;;;;333.20;2329.60;;;;;;5116222;28;19975;-78
2022/04/25 04:51:01;;;;;;;;;;;333.30;2329.60;;;;;;5116077;28;20360;-77
2022/04/25 04:53:27;;;;;;;;;;;333.30;2329.60;;;;;;5116058;28;19903;-77
2022/04/25 04:55:53;;;;;;;;;;;333.40;2329.60;;;;;;5097594;28;19904;-77
2022/04/25 04:58:19;;;;;;;;;;;333.30;2329.60;;;;;;5115866;28;19955;-71
2022/04/25 05:00:46;;;;;;;;;;;333.40;2329.60;;;;;;5115848;28;19943;-70
2022/04/25 05:03:15;;;;;;;;;;;333.40;2329.60;;;;;;5116081;28;19966;-77
2022/04/25 05:05:41;;;;;;;;;;;333.40;2329.60;;;;;;5115684;28;19908;-77
2022/04/25 05:08:07;;;;;;;;;;;333.50;2329.60;;;;;;5115799;28;19903;-71
2022/04/25 05:10:33;;;;;;;;;;;333.50;2329.60;;;;;;5115628;28;20387;-75
2022/04/25 05:12:58;;;;;;;;;;;333.50;2329.60;;;;;;5115593;28;19999;-76
2022/04/25 05:15:24;;;;;;;;;;;333.50;2329.60;;;;;;5115608;28;19911;-77
2022/04/25 05:17:53;;;;;;;;;;;333.50;2329.60;;;;;;5115519;28;20364;-78
2022/04/25 05:20:22;;;;;;;;;;;333.50;2329.60;;;;;;5115780;28;19998;-71
2022/04/25 05:22:49;;;;;;;;;;;333.60;2329.60;;;;;;5115642;28;19994;-74
2022/04/25 05:25:16;;;;;;;;;;;333.50;2329.60;;;;;;5115693;28;19908;-76
2022/04/25 05:27:42;;;;;;;;;;;333.60;2329.60;;;;;;5115388;28;19904;-71
2022/04/25 05:30:08;;;;;;;;;;;333.50;2329.60;;;;;;5115346;28;20468;-77
2022/04/25 05:33:03;;;;;;;;;;;333.60;2329.60;;;;;;5115261;28;19964;-78
2022/04/25 05:35:30;;;;;;;;;;;333.60;2329.60;;;;;;5032920;28;20004;-71
2022/04/25 05:37:56;;;;;;;;;;;333.60;2329.60;;;;;;5033815;28;20471;-73
2022/04/25 05:40:22;;;;;;;;;;;333.50;2329.60;;;;;;5033326;28;19912;-71
2022/04/25 05:42:49;;;;;;;;;;;333.50;2329.60;;;;;;5034146;28;19905;-72
2022/04/25 05:45:16;;;;;;;;;;;333.60;2329.60;;;;;;5034014;28;20035;-71
2022/04/25 05:47:43;;;;;;;;;;;333.60;2329.60;;;;;;5033985;28;19912;-71
2022/04/25 05:52:54;;;;;;;;;;;358.40;2329.60;;;;;;5032593;28;20344;-74
2022/04/25 05:55:20;;;;;;;;;;;358.50;2329.60;;;;;;5031976;28;20346;-78
2022/04/25 05:57:46;;;;;;;;;;;358.50;2329.60;;;;;;5031970;28;19913;-71
2022/04/25 06:00:12;;;;;;;;;;;358.60;2329.60;;;;;;5032056;28;20358;-77
2022/04/25 06:02:39;;;;;;;;;;;358.70;2329.60;;;;;;5032016;28;19912;-78
2022/04/25 06:05:05;;;;;;;;;;;358.60;2329.60;;;;;;5032029;28;19905;-77
2022/04/25 06:07:31;;;;;;;;;;;358.70;2329.60;;;;;;5031545;28;19917;-73
2022/04/25 06:09:57;;;;;;;;;;;358.80;2329.60;;;;;;5031183;28;19913;-78
2022/04/25 06:12:22;;;;;;;;;;;358.90;2329.60;;;;;;5090515;28;20333;-79
2022/04/25 06:14:48;;;;;;;;;;;358.90;2329.60;;;;;;5095579;28;20363;-79
2022/04/25 06:17:15;;;;;;;;;;;358.90;2329.60;;;;;;5113127;28;19964;-71
2022/04/25 06:19:41;;;;;;;;;;;358.90;2329.60;;;;;;5113873;28;19914;-71
2022/04/25 06:22:09;;;;;;;;;;;358.90;2329.60;;;;;;5113792;28;19955;-72
2022/04/25 06:24:35;;;;;;;;;;;358.90;2329.60;;;;;;5113697;28;19933;-70
2022/04/25 06:27:02;;;;;;;;;;;358.90;2329.60;;;;;;5113737;28;19946;-77
2022/04/25 06:29:29;;;;;;;;;;;358.90;2329.60;;;;;;5113714;28;20362;-77
2022/04/25 06:31:55;;;;;;;;;;;359.00;2329.60;;;;;;5113765;28;20264;-76
2022/04/25 06:34:21;;;;;;;;;;;359.00;2329.60;;;;;;5113431;28;19951;-71
2022/04/25 06:36:50;;;;;;;;;;;359.00;2329.60;;;;;;5095294;28;19942;-77
2022/04/25 06:39:16;;;;;;;;;;;359.00;2329.60;;;;;;5110777;28;19912;-75
2022/04/25 06:41:41;;;;;;;;;;;359.00;2329.60;;;;;;5114672;28;19903;-71
2022/04/25 06:44:07;;;;;;;;;;;358.90;2329.60;;;;;;5114351;28;19904;-76
2022/04/25 06:46:33;;;;;;;;;;;358.70;2329.60;;;;;;5113079;28;20036;-71
2022/04/25 06:51:42;;;;;;;;;;;358.60;2329.60;;;;;;5113989;28;19914;-71
2022/04/25 06:54:08;;;;;;;;;;;358.80;2329.60;;;;;;5112418;28;19908;-78
2022/04/25 06:56:35;;;;;;;;;;;358.90;2329.60;;;;;;5113706;28;19934;-72
2022/04/25 06:59:01;;;;;;;;;;;358.90;2329.60;;;;;;5113300;28;20287;-75
2022/04/25 07:01:27;;;;;;;;;;;358.90;2329.60;;;;;;5112174;28;19910;-72
2022/04/25 07:03:53;;;;;;;;;;;358.90;2329.60;;;;;;5112285;28;19904;-73
2022/04/25 07:06:18;;;;;;;;;;;359.00;2329.60;;;;;;5093617;28;19990;-72
2022/04/25 07:08:44;;;;;;;;;;;359.00;2329.60;;;;;;5105929;28;20261;-79
2022/04/25 07:11:09;;;;;;;;;;;358.90;2329.60;;;;;;5110946;28;19907;-76
2022/04/25 07:13:36;;;;;;;;;;;358.60;2329.60;;;;;;5092523;28;19956;-80
2022/04/25 07:16:02;;;;;;;;;;;359.10;2329.60;;;;;;5111477;28;19915;-80
2022/04/25 07:18:29;;;;;;;;;;;359.20;2329.60;;;;;;5112028;28;19958;-74
2022/04/25 07:20:55;;;;;;;;;;;359.30;2329.60;;;;;;5090043;28;19908;-75
2022/04/25 07:28:49;;;;;;;;;;;384.40;2329.60;;;;;;5112360;28;19910;-76
2022/04/25 07:31:15;;;;;;;;;;;384.50;2329.60;;;;;;5097682;28;19908;-76
2022/04/25 07:33:43;;;;;;;;;;;384.50;2329.60;;;;;;5117366;28;19904;-75
2022/04/25 07:36:09;;;;;;;;;;;384.50;2329.60;;;;;;5116663;28;19916;-77
2022/04/25 07:38:39;;;;;;;;;;;384.40;2329.60;;;;;;5117116;28;20525;-76
2022/04/25 07:41:06;;;;;;;;;;;384.50;2329.60;;;;;;5116972;28;20241;-76
2022/04/25 07:43:31;;;;;;;;;;;384.50;2329.60;;;;;;5116758;28;19956;-74
2022/04/25 07:45:57;;;;;;;;;;;384.50;2329.60;;;;;;5117049;28;19907;-75
2022/04/25 07:48:25;;;;;;;;;;;384.70;2329.60;;;;;;5098289;28;19910;-74
2022/04/25 07:50:50;;;;;;;;;;;384.70;2329.60;;;;;;5117007;28;19991;-77
2022/04/25 07:53:16;;;;;;;;;;;409.70;2355.20;;;;;;5096827;28;20416;-76
2022/04/25 07:55:42;;;;;;;;;;;409.80;2355.20;;;;;;5111446;28;19904;-74
2022/04/25 07:58:08;;;;;;;;;;;409.90;2355.20;;;;;;5114677;28;19919;-76
2022/04/25 08:00:35;;;;;;;;;;;410.00;2355.20;;;;;;5084185;28;19908;-76
2022/04/25 08:03:01;;;;;;;;;;;435.20;2355.20;;;;;;5114099;28;19912;-74
2022/04/25 08:05:26;;;;;;;;;;;435.30;2355.20;;;;;;5097181;28;19904;-76
2022/04/25 08:07:52;;;;;;;;;;;435.30;2355.20;;;;;;5096082;28;19972;-75
2022/04/25 08:10:18;;;;;;;;;;;435.70;2355.20;;;;;;5096079;28;20289;-75
2022/04/25 08:18:13;;;;;;;;;;;486.80;2380.80;;;;;;5096191;28;19919;-76
2022/04/25 08:20:39;;;;;;;2.30;0.80;;;486.80;2380.80;;;;;;5094886;28;20195;-77
2022/04/25 08:23:09;;;;;;;8.45;4.50;;;487.30;2380.80;;;;;;5095487;28;20061;-76
2022/04/25 08:25:39;;;;;;;2.30;0.80;;;538.20;2048.00;;;;;;5094909;28;20643;-77
2022/04/25 08:28:05;;;;;;;5.70;3.97;;;538.20;2150.40;;;;;;5097502;28;20035;-77
2022/04/25 08:30:31;;;;;;;18.77;15.13;;;563.90;1945.60;;;;;;5110855;28;20442;-75
2022/04/25 08:32:59;;;;;;;6.68;4.00;;;589.30;1817.60;;;;;;5114268;28;20779;-75
2022/04/25 08:35:24;;;;;;;4.10;0.95;;;589.30;1792.00;;;;;;5113653;28;20390;-76
2022/04/25 08:37:50;;;;;;;9.53;8.07;;;588.80;1792.00;;;;;;5104523;28;20931;-74
2022/04/25 08:40:17;;;;;;;2.47;0.93;;;563.80;1817.60;;;;;;5077116;28;20464;-74
2022/04/25 08:42:43;;;;;;;2.78;0.95;;;538.20;1792.00;;;;;;5093420;28;20376;-73
2022/04/25 08:45:10;;;;;;;1.90;0.80;;;537.90;1945.60;;;;;;5094063;28;20783;-74
2022/04/25 08:47:52;;;;;;;1.85;0.82;;;538.50;1894.40;;;;;;5093256;28;20376;-74
2022/04/25 08:50:18;;;;;;;3.92;1.48;;;538.30;1868.80;;;;;;5093820;28;20417;-76
2022/04/25 08:52:46;;;;;;;4.28;1.73;;;563.70;1792.00;;;;;;5093529;28;20374;-75
2022/04/25 08:55:13;;;;;;;4.45;2.20;;;538.30;1817.60;;;;;;5094188;28;20920;-75
2022/04/25 08:57:41;;;;;;;20.90;12.35;;;538.50;1792.00;;;;;;5110045;28;20830;-74
2022/04/25 09:00:07;;;;;;;12.32;5.72;;;512.70;1817.60;;;;;;5094542;28;20372;-77
2022/04/25 09:02:44;;;;;;;15.73;10.77;;;538.00;1817.60;;;;;;5094624;28;20372;-76
2022/04/25 09:05:11;;;;;;;6.60;3.50;;;563.20;1792.00;;;;;;5094593;28;20421;-76
2022/04/25 09:07:38;;;;;;;6.95;3.30;;;563.70;1766.40;;;;;;5110012;28;20424;-74
2022/04/25 09:10:08;;;;;;;6.68;2.55;;;563.30;1792.00;;;;;;5076336;28;20415;-75
2022/04/25 09:12:38;;;;;;;4.37;1.83;;;563.20;1715.20;;;;;;5094409;28;20468;-74
2022/04/25 09:15:05;;;;;;;9.93;7.30;;;537.80;1740.80;;;;;;5094392;28;20408;-74
2022/04/25 09:17:32;;;;;;;7.05;4.40;;;512.70;1766.40;;;;;;5094229;28;20836;-76
2022/04/25 09:19:59;;;;;;;8.97;6.10;;;512.90;1792.00;;;;;;5075996;28;20392;-76
2022/04/25 09:22:36;;;;;;;6.63;1.30;;;537.60;1792.00;;;;;;5094224;28;20372;-75
2022/04/25 09:25:11;;;;;;;3.23;0.90;;;538.00;1766.40;;;;;;5076068;28;20436;-76
2022/04/25 09:27:39;;;;;;;6.07;2.35;;;538.30;1740.80;;;;;;5092644;28;20376;-75
2022/04/25 09:30:21;;;;;;;3.58;1.00;;;563.40;1689.60;;;;;;5082608;28;20385;-76
2022/04/25 09:32:50;;;;;;;3.47;1.02;;;537.70;1715.20;;;;;;5093186;28;20738;-76
2022/04/25 09:35:32;;;;;;;3.88;1.23;;;512.70;1740.80;;;;;;5113887;28;20382;-74
2022/04/25 09:38:10;;;;;;;6.03;1.25;;;512.20;1792.00;;;;;;5112440;28;20886;-74
2022/04/25 09:40:38;;;;;;;2.88;1.00;;;512.00;1792.00;;;;;;5097434;28;20391;-74
2022/04/25 09:43:12;;;;;;;2.33;0.80;;;512.90;1792.00;;;;;;5114079;28;20069;-75
2022/04/25 09:45:43;;;;;;;4.28;1.08;;;538.00;1715.20;;;;;;5094159;28;20020;-74
2022/04/25 09:48:16;;;;;;;4.40;1.10;;;538.10;1715.20;;;;;;5101683;28;20055;-75
2022/04/25 09:50:43;;;;;;;2.70;1.00;;;538.00;1792.00;;;;;;5112572;28;20098;-74
2022/04/25 09:53:10;;;;;;;7.40;1.95;;;537.60;1740.80;;;;;;5113750;28;20111;-72
2022/04/25 09:55:39;;;;;;;38.97;30.08;;;563.20;1766.40;;;;;;5113822;28;20499;-76
2022/04/25 09:58:22;;;;;;;3.08;1.23;;;537.60;1792.00;;;;;;5113999;28;20074;-73
2022/04/25 10:00:53;;;;;;;5.88;4.15;;;512.10;1817.60;;;;;;5112742;28;20106;-76
2022/04/25 10:03:35;;;;;;;2.67;1.50;;;512.00;1868.80;;;;;;5113787;28;20065;-74
2022/04/25 10:06:03;;;;;;;5.15;1.70;;;512.70;1817.60;;;;;;5093379;28;20016;-74
2022/04/25 10:08:34;;;;;;;5.30;1.65;;;512.90;1843.20;;;;;;5110631;28;20030;-74
2022/04/25 10:11:03;;;;;;;2.40;0.82;;;538.10;1766.40;;;;;;5103314;28;20027;-75
2022/04/25 10:13:31;;;;;;;2.33;0.60;;;512.70;1766.40;;;;;;5113316;28;20047;-76
2022/04/25 10:15:58;;;;;;;7.13;2.20;;;512.70;1740.80;;;;;;5104298;28;20515;-76
2022/04/25 10:18:26;;;;;;;1.33;0.50;;;538.10;1740.80;;;;;;5113245;28;20035;-74
2022/04/25 10:20:52;;;;;;;4.05;0.63;;;512.70;1664.00;;;;;;5113487;28;20016;-76
2022/04/25 10:23:18;;;;;;;2.90;0.70;;;512.40;1715.20;;;;;;5107365;28;20347;-74
2022/04/25 10:25:50;;;;;;;4.18;1.70;;;512.00;1740.80;;;;;;5103000;28;20102;-74
2022/04/25 10:28:24;;;;;;;5.55;2.55;;;487.20;1766.40;;;;;;5113132;28;20031;-74
2022/04/25 10:30:51;;;;;;;2.20;0.60;;;487.30;1792.00;;;;;;5113302;28;20052;-75
2022/04/25 10:33:20;;;;;;;1.08;0.50;;;487.20;1792.00;;;;;;5095162;28;20393;-75
2022/04/25 10:35:49;;;;;;;3.05;0.60;;;512.20;1766.40;;;;;;5112984;28;20039;-74
2022/04/25 10:44:31;;;;;;;2.30;0.70;;;512.40;1689.60;;;;;;5113452;28;20127;-73
2022/04/25 10:47:06;;;;;;;1.98;0.88;;;512.20;1740.80;;;;;;5058281;28;20498;-72
2022/04/25 10:49:46;;;;;;;1.17;0.60;;;512.50;1766.40;;;;;;5113763;28;20102;-77
2022/04/25 10:52:33;;;;;;;1.85;0.82;;;537.60;1766.40;;;;;;5113944;28;20016;-75
2022/04/25 10:55:32;;;;;;;6.50;4.00;;;537.60;1792.00;;;;;;5094706;28;20110;-78
2022/04/25 10:58:04;;;;;;;4.40;2.45;;;512.00;1740.80;;;;;;5096080;28;20042;-78
2022/04/25 11:00:49;;;;;;;2.17;0.75;;;512.50;1664.00;;;;;;5095827;28;20058;-75
2022/04/25 11:03:23;;;;;;;1.77;0.85;;;537.70;1638.40;;;;;;5095933;28;20114;-78
2022/04/25 11:05:58;;;;;;;6.45;2.25;;;537.90;1612.80;;;;;;5114495;28;20467;-79
2022/04/25 11:08:29;;;;;;;27.80;18.05;;;538.10;1612.80;;;;;;5089880;28;20020;-76
2022/04/25 11:10:59;;;;;;;10.77;6.22;;;563.40;1638.40;;;;;;5114082;28;20026;-80
2022/04/25 11:13:47;;;;;;;9.57;6.22;;;538.50;1587.20;;;;;;5114327;28;20019;-78
2022/04/25 11:16:22;;;;;;;3.78;0.63;;;538.20;1664.00;;;;;;5094273;28;20106;-76
2022/04/25 11:19:11;;;;;;;2.25;0.50;;;538.20;1587.20;;;;;;5095750;28;20048;-76
2022/04/25 11:21:49;;;;;;;2.67;0.73;;;538.40;1587.20;;;;;;5113955;28;20027;-76
2022/04/25 11:24:35;;;;;;;2.78;0.70;;;538.10;1612.80;;;;;;5095886;28;20374;-76
2022/04/25 11:27:03;;;;;;;2.10;0.60;;;563.50;1561.60;;;;;;5095891;28;20027;-80
2022/04/25 11:29:30;;;;;;;1.90;0.70;;;563.40;1561.60;;;;;;5095592;28;20016;-79
2022/04/25 11:32:22;;;;;;;2.15;0.70;;;538.30;1561.60;;;;;;5114192;28;20080;-81
2022/04/25 11:34:48;;;;;;;1.33;0.50;;;538.20;1561.60;;;;;;5114059;28;20044;-80
2022/04/25 11:37:14;;;;;;;3.75;0.70;;;538.10;1561.60;;;;;;5095436;28;20023;-77
2022/04/25 11:39:54;;;;;;;7.32;1.65;;;538.20;1612.80;;;;;;5095779;28;20031;-81
2022/04/25 11:42:19;;;;;;;4.05;0.90;;;538.10;1587.20;;;;;;5114133;28;20020;-79
2022/04/25 11:44:45;;;;;;;2.28;0.63;;;538.40;1587.20;;;;;;5095978;28;20495;-82
2022/04/25 11:47:11;;;;;;;1.55;0.45;;;538.00;1587.20;;;;;;5095844;28;20020;-78
2022/04/25 11:49:38;;;;;;;1.55;0.70;;;538.10;1587.20;;;;;;5113917;28;20388;-80
2022/04/25 11:52:05;;;;;;;1.45;0.70;;;563.40;1587.20;;;;;;5095609;28;20540;-79
2022/04/25 11:54:35;;;;;;;5.57;1.15;;;563.50;1587.20;;;;;;5111740;28;20503;-78
2022/04/25 11:57:02;;;;;;;2.58;0.70;;;563.40;1587.20;;;;;;5093897;28;20028;-79
2022/04/25 11:59:28;;;;;;;3.85;0.52;;;538.30;1536.00;;;;;;5112622;28;20051;-79
2022/04/25 12:01:54;;;;;;;3.38;0.75;;;537.80;1536.00;;;;;;5093667;28;20483;-77
2022/04/25 12:04:20;;;;;;;2.55;1.42;;;563.60;1561.60;;;;;;5095096;28;20030;-78
2022/04/25 12:07:00;;;;;;;2.90;1.30;;;563.80;1536.00;;;;;;5114047;28;20426;-83
2022/04/25 12:17:54;;;;;;;2.17;0.90;;;538.40;1510.40;;;;;;5117456;28;20080;-78
2022/04/25 12:20:29;;;;;;;1.90;0.68;;;537.90;1561.60;;;;;;5099147;28;20023;-77
2022/04/25 12:22:58;;;;;;;2.13;0.90;;;538.20;1587.20;;;;;;5099096;28;20031;-81
2022/04/25 12:25:26;;;;;;;4.57;0.80;;;563.60;1561.60;;;;;;5117319;28;20020;-81
2022/04/25 12:28:07;;;;;;;1.90;0.70;;;563.50;1536.00;;;;;;5099189;28;20026;-79
2022/04/25 12:30:55;;;;;;;2.30;0.70;;;588.80;1459.20;;;;;;5117234;28;20034;-79
2022/04/25 12:33:33;;;;;;;1.05;0.40;;;563.40;1510.40;;;;;;5117135;28;20123;-78
2022/04/25 12:36:22;;;;;;;1.30;0.63;;;563.30;1536.00;;;;;;5095157;28;20048;-79
2022/04/25 12:38:50;;;;;;;2.38;1.00;;;564.00;1510.40;;;;;;5095368;28;20521;-76
2022/04/25 12:41:39;;;;;;;2.50;0.50;;;589.20;1356.80;;;;;;5094378;28;20372;-81
2022/04/25 12:44:12;;;;;;;1.70;0.80;;;589.50;1331.20;;;;;;5095299;28;20032;-75
2022/04/25 12:46:45;;;;;;;2.08;1.00;;;564.00;1382.40;;;;;;5095438;28;20027;-81
2022/04/25 12:49:16;;;;;;;2.97;0.80;;;563.70;1433.60;;;;;;5095755;28;20029;-77
2022/04/25 12:51:51;;;;;;;2.55;0.90;;;563.50;1433.60;;;;;;5095622;28;20035;-77
2022/04/25 12:54:20;;;;;;;2.78;0.90;;;563.30;1459.20;;;;;;5095044;28;20480;-79
2022/04/25 12:56:47;;;;;;;2.33;1.10;;;538.30;1459.20;;;;;;5095241;28;20136;-79
2022/04/25 12:59:27;;;;;;;2.15;0.77;;;538.30;1459.20;;;;;;5096771;28;20043;-81
2022/04/25 13:02:14;;;;;;;2.95;0.80;;;563.20;1459.20;;;;;;5095021;28;20024;-79
2022/04/25 13:04:57;;;;;;;6.63;2.95;;;563.60;1459.20;;;;;;5096085;28;20422;-76
2022/04/25 13:07:23;;;;;;;;;;;563.70;1510.40;;;;;;5095101;28;20424;-76
2022/04/25 13:09:48;;;;;;;;;;;563.60;1536.00;;;;;;5096389;28;19904;-76
2022/04/25 13:12:15;;;;;;;;;;;563.80;1510.40;;;;;;5096346;28;19988;-75
2022/04/25 13:14:41;;;;;;;;;;;589.10;1484.80;;;;;;5096248;28;19904;-76
2022/04/25 13:17:07;;;;;;;;;;;589.20;1459.20;;;;;;5096337;28;20065;-81
2022/04/25 13:19:33;;;;;;;;;;;564.10;1510.40;;;;;;5096487;28;19904;-75
2022/04/25 13:21:58;;;;;;;;;;;563.70;1510.40;;;;;;5096237;28;19904;-79
2022/04/25 13:24:24;;;;;;;;;;;563.60;1510.40;;;;;;5096452;28;19938;-80
2022/04/25 13:26:50;;;;;;;;;;;563.20;1536.00;;;;;;5094249;28;20376;-80
2022/04/25 13:29:16;;;;;;;;;;;563.50;1536.00;;;;;;5095248;28;19908;-79
2022/04/25 13:31:42;;;;;;;;;;;589.00;1459.20;;;;;;5096190;28;20375;-79
2022/04/25 13:34:08;;;;;;;;;;;589.30;1459.20;;;;;;5096300;28;19904;-78
2022/04/25 13:36:36;;;;;;;;;;;589.40;1433.60;;;;;;5116863;28;20417;-80
2022/04/25 13:39:03;;;;;;;;;;;589.50;1408.00;;;;;;5098073;28;19957;-75
2022/04/25 13:41:30;;;;;;;;;;;589.60;1433.60;;;;;;5116126;28;19904;-76
2022/04/25 13:43:56;;;;;;;;;;;614.40;1356.80;;;;;;5115501;28;19904;-73
2022/04/25 13:46:22;;;;;;;;;;;589.70;1408.00;;;;;;5116120;28;19911;-79
2022/04/25 13:48:48;;;;;;;;;;;564.10;1356.80;;;;;;5115758;28;19919;-79
2022/04/25 13:51:14;;;;;;;;;;;589.20;1382.40;;;;;;5114387;28;19903;-79